Time;durP1;ratioP1;P1;durP2;ratioP2;P2;SDS_P1;SDS_P2;PMS_P1;PMS_P2;Temp;Humidity;BMP_temperature;BMP_pressure;BME280_temperature;BME280_humidity;BME280_pressure;Samples;Min_cycle;Max_cycle;Signal;HPM_P1;HPM_P2
2023/04/09 00:01:57;;;;;;;158.60;82.80;;;8.60;99.90;;;;;;5059887;28;20040;-81
2023/04/09 00:04:23;;;;;;;163.05;84.63;;;8.60;99.90;;;;;;5041970;28;20052;-81
2023/04/09 00:06:49;;;;;;;159.38;82.43;;;8.60;99.90;;;;;;5042038;28;20084;-80
2023/04/09 00:09:15;;;;;;;163.88;84.70;;;8.60;99.90;;;;;;5041738;28;20048;-81
2023/04/09 00:11:40;;;;;;;168.35;84.53;;;8.60;99.90;;;;;;5059654;28;20056;-81
2023/04/09 00:14:06;;;;;;;166.00;85.13;;;8.60;99.90;;;;;;5042139;28;20057;-81
2023/04/09 00:16:32;;;;;;;158.88;85.32;;;8.60;99.90;;;;;;5042116;28;20388;-81
2023/04/09 00:18:57;;;;;;;168.38;85.30;;;8.60;99.90;;;;;;5041892;28;20132;-81
2023/04/09 00:21:23;;;;;;;166.00;86.10;;;8.60;99.90;;;;;;5041900;28;20052;-81
2023/04/09 00:23:49;;;;;;;161.35;84.70;;;8.50;99.90;;;;;;5060015;28;20045;-81
2023/04/09 00:26:14;;;;;;;161.05;83.38;;;8.60;99.90;;;;;;5059566;28;20049;-81
2023/04/09 00:28:40;;;;;;;155.95;78.88;;;8.60;99.90;;;;;;5059601;28;20055;-81
2023/04/09 00:31:06;;;;;;;154.38;80.18;;;8.60;99.90;;;;;;5041901;28;20040;-81
2023/04/09 00:33:31;;;;;;;159.02;83.15;;;8.60;99.90;;;;;;5041681;28;20056;-81
2023/04/09 00:35:57;;;;;;;163.95;83.10;;;8.60;99.90;;;;;;5041646;28;20060;-81
2023/04/09 00:38:23;;;;;;;159.68;85.53;;;8.60;99.90;;;;;;5041513;28;20127;-81
2023/04/09 00:40:50;;;;;;;159.02;84.43;;;8.50;99.90;;;;;;5059648;28;20040;-81
2023/04/09 00:43:16;;;;;;;158.23;86.45;;;8.50;99.90;;;;;;5041845;28;20454;-81
2023/04/09 00:45:46;;;;;;;157.38;84.63;;;8.60;99.90;;;;;;5059699;28;20048;-80
2023/04/09 00:48:12;;;;;;;154.68;82.50;;;8.60;99.90;;;;;;5041552;28;20127;-80
2023/04/09 00:50:38;;;;;;;162.00;83.40;;;8.50;99.90;;;;;;5038164;28;20435;-82
2023/04/09 00:53:04;;;;;;;150.52;80.93;;;8.50;99.90;;;;;;5056248;28;20045;-81
2023/04/09 00:55:32;;;;;;;159.23;85.95;;;8.50;99.90;;;;;;5056441;28;20038;-81
2023/04/09 00:57:58;;;;;;;156.18;82.30;;;8.50;99.90;;;;;;5038597;28;20064;-80
2023/04/09 01:00:24;;;;;;;151.57;83.22;;;8.50;99.90;;;;;;5056221;28;20049;-81
2023/04/09 01:02:52;;;;;;;142.30;75.50;;;8.50;99.90;;;;;;5038315;28;20049;-81
2023/04/09 01:05:18;;;;;;;154.68;76.93;;;8.50;99.90;;;;;;5038092;28;20052;-81
2023/04/09 01:08:18;;;;;;;145.23;76.53;;;8.50;99.90;;;;;;5056114;28;20048;-81
2023/04/09 01:10:58;;;;;;;140.45;73.10;;;8.50;99.90;;;;;;5056114;28;20072;-81
2023/04/09 01:13:52;;;;;;;146.13;70.03;;;8.50;99.90;;;;;;5038222;28;20056;-81
2023/04/09 01:16:21;;;;;;;157.18;68.57;;;8.40;99.90;;;;;;5055779;28;20049;-80
2023/04/09 01:18:55;;;;;;;143.30;67.18;;;8.40;99.90;;;;;;5055909;28;20052;-81
2023/04/09 01:21:27;;;;;;;144.80;66.45;;;8.40;99.90;;;;;;5055912;28;20047;-81
2023/04/09 01:24:24;;;;;;;144.95;63.47;;;8.30;99.90;;;;;;5055793;28;20040;-81
2023/04/09 01:27:04;;;;;;;143.05;63.88;;;8.30;99.90;;;;;;5038060;28;20053;-80
2023/04/09 01:29:33;;;;;;;144.70;59.10;;;8.20;99.90;;;;;;5037687;28;20037;-80
2023/04/09 01:32:01;;;;;;;137.27;60.38;;;8.30;99.90;;;;;;5037683;28;20049;-80
2023/04/09 01:34:28;;;;;;;141.35;62.60;;;8.20;99.90;;;;;;5055335;28;20056;-80
2023/04/09 01:36:57;;;;;;;141.93;60.33;;;8.20;99.90;;;;;;5055497;28;20052;-81
2023/04/09 01:39:23;;;;;;;136.95;58.00;;;8.10;99.90;;;;;;5055338;28;20049;-80
2023/04/09 01:41:50;;;;;;;137.65;58.45;;;8.10;99.90;;;;;;5037796;28;20119;-81
2023/04/09 01:44:17;;;;;;;131.27;59.25;;;8.10;99.90;;;;;;5037761;28;20401;-81
2023/04/09 01:46:45;;;;;;;127.18;57.35;;;8.10;99.90;;;;;;5037565;28;20052;-80
2023/04/09 01:49:11;;;;;;;125.80;57.95;;;8.10;99.90;;;;;;5055310;28;20106;-80
2023/04/09 01:51:37;;;;;;;129.23;55.15;;;8.10;99.90;;;;;;5055085;28;20049;-81
2023/04/09 01:54:07;;;;;;;133.60;55.08;;;8.10;99.90;;;;;;5054971;28;20476;-81
2023/04/09 01:56:45;;;;;;;131.57;54.40;;;8.10;99.90;;;;;;5055112;28;20159;-81
2023/04/09 01:59:11;;;;;;;132.88;56.05;;;8.10;99.90;;;;;;5037270;28;20053;-80
2023/04/09 02:02:04;;;;;;;118.32;51.35;;;8.00;99.90;;;;;;5054633;28;20064;-80
2023/04/09 02:04:37;;;;;;;118.40;51.35;;;8.10;99.90;;;;;;5055183;28;20086;-81
2023/04/09 02:07:18;;;;;;;117.00;48.58;;;8.00;99.90;;;;;;5037333;28;20476;-81
2023/04/09 02:09:46;;;;;;;119.43;50.78;;;8.00;99.90;;;;;;5037104;28;20087;-80
2023/04/09 02:12:16;;;;;;;112.35;46.35;;;8.00;99.90;;;;;;5037253;28;20084;-80
2023/04/09 02:14:45;;;;;;;108.50;44.75;;;8.00;99.90;;;;;;5036854;28;20080;-81
2023/04/09 02:17:12;;;;;;;111.75;46.58;;;8.00;99.90;;;;;;5036839;28;20048;-81
2023/04/09 02:19:45;;;;;;;107.57;45.00;;;8.00;99.90;;;;;;5054692;28;20063;-80
2023/04/09 02:22:11;;;;;;;115.47;47.63;;;8.00;99.90;;;;;;5037100;28;20063;-80
2023/04/09 02:24:37;;;;;;;112.50;45.92;;;8.00;99.90;;;;;;5036973;28;20098;-80
2023/04/09 02:27:05;;;;;;;113.82;44.85;;;7.90;99.90;;;;;;5036651;28;20049;-80
2023/04/09 02:29:30;;;;;;;107.93;45.60;;;8.00;99.90;;;;;;5036841;28;20060;-80
2023/04/09 02:31:56;;;;;;;106.95;43.90;;;7.90;99.90;;;;;;5054463;28;20037;-80
2023/04/09 02:34:22;;;;;;;104.18;43.47;;;7.90;99.90;;;;;;5036834;28;20041;-81
2023/04/09 02:36:48;;;;;;;109.18;45.03;;;7.90;99.90;;;;;;5036781;28;20056;-80
2023/04/09 02:39:14;;;;;;;102.72;43.40;;;7.90;99.90;;;;;;5036580;28;20151;-80
2023/04/09 02:41:39;;;;;;;106.60;44.05;;;7.90;99.90;;;;;;5036243;28;20041;-80
2023/04/09 02:44:05;;;;;;;105.55;44.80;;;7.90;99.90;;;;;;5054485;28;20043;-80
2023/04/09 02:46:31;;;;;;;104.50;43.92;;;7.90;99.90;;;;;;5036245;28;20048;-81
2023/04/09 02:48:56;;;;;;;106.07;42.67;;;7.90;99.90;;;;;;5054284;28;20108;-80
2023/04/09 02:51:22;;;;;;;105.65;45.33;;;7.90;99.90;;;;;;5036259;28;20060;-80
2023/04/09 02:53:48;;;;;;;97.72;39.17;;;7.90;99.90;;;;;;5054087;28;20048;-80
2023/04/09 02:56:19;;;;;;;98.15;39.58;;;7.80;99.90;;;;;;5035984;28;20495;-80
2023/04/09 02:58:48;;;;;;;94.72;38.15;;;7.80;99.90;;;;;;5036352;28;20048;-80
2023/04/09 03:01:14;;;;;;;96.63;38.13;;;7.80;99.90;;;;;;5053965;28;20124;-80
2023/04/09 03:03:40;;;;;;;91.68;37.22;;;7.80;99.90;;;;;;5053959;28;20112;-80
2023/04/09 03:06:06;;;;;;;87.10;37.70;;;7.80;99.90;;;;;;5036331;28;20045;-80
2023/04/09 03:08:32;;;;;;;88.45;36.03;;;7.80;99.90;;;;;;5035809;28;20075;-80
2023/04/09 03:10:57;;;;;;;85.25;36.75;;;7.70;99.90;;;;;;5054136;28;20049;-80
2023/04/09 03:13:23;;;;;;;87.82;35.78;;;7.80;99.90;;;;;;5053088;28;20499;-80
2023/04/09 03:15:52;;;;;;;74.78;34.03;;;7.80;99.90;;;;;;5036140;28;20131;-81
2023/04/09 03:18:17;;;;;;;73.97;32.53;;;7.80;99.90;;;;;;5053583;28;20070;-81
2023/04/09 03:20:43;;;;;;;76.45;33.17;;;7.80;99.90;;;;;;5053650;28;20037;-81
2023/04/09 03:23:09;;;;;;;84.93;33.72;;;7.80;99.90;;;;;;5036118;28;20493;-80
2023/04/09 03:25:35;;;;;;;82.32;33.63;;;7.70;99.90;;;;;;5054087;28;20060;-80
2023/04/09 03:28:02;;;;;;;82.53;33.15;;;7.60;99.90;;;;;;5053688;28;20049;-80
2023/04/09 03:30:28;;;;;;;77.63;33.00;;;7.70;99.90;;;;;;5053574;28;20493;-80
2023/04/09 03:32:53;;;;;;;74.55;32.60;;;7.70;99.90;;;;;;5053681;28;20037;-80
2023/04/09 03:35:19;;;;;;;85.93;34.67;;;7.70;99.90;;;;;;5035688;28;20049;-80
2023/04/09 03:37:45;;;;;;;79.28;33.72;;;7.70;99.90;;;;;;5035975;28;20084;-80
2023/04/09 03:40:11;;;;;;;78.93;34.72;;;7.70;99.90;;;;;;5035684;28;20088;-80
2023/04/09 03:42:37;;;;;;;77.20;34.38;;;7.70;99.90;;;;;;5053424;28;20048;-80
2023/04/09 03:45:06;;;;;;;78.63;34.42;;;7.70;99.90;;;;;;5035832;28;20044;-80
2023/04/09 03:47:32;;;;;;;81.05;33.97;;;7.60;99.90;;;;;;5053369;28;20471;-80
2023/04/09 03:49:57;;;;;;;81.70;33.42;;;7.60;99.90;;;;;;5053424;28;20472;-80
2023/04/09 03:52:23;;;;;;;76.40;33.03;;;7.60;99.90;;;;;;5052913;28;20056;-81
2023/04/09 03:54:50;;;;;;;82.53;34.47;;;7.60;99.90;;;;;;5036211;28;20076;-81
2023/04/09 03:57:16;;;;;;;79.45;33.92;;;7.60;99.90;;;;;;5053596;28;20476;-80
2023/04/09 03:59:41;;;;;;;78.47;34.10;;;7.60;99.90;;;;;;5053176;28;20047;-80
2023/04/09 04:02:07;;;;;;;81.95;34.35;;;7.60;99.90;;;;;;5053293;28;20504;-80
2023/04/09 04:04:32;;;;;;;76.22;32.78;;;7.60;99.90;;;;;;5035632;28;20051;-80
2023/04/09 04:06:58;;;;;;;79.97;32.97;;;7.60;99.90;;;;;;5035252;28;20132;-80
2023/04/09 04:09:24;;;;;;;76.13;33.38;;;7.60;99.90;;;;;;5053288;28;20029;-80
2023/04/09 04:11:49;;;;;;;81.07;32.63;;;7.60;99.90;;;;;;5035295;28;20105;-80
2023/04/09 04:14:15;;;;;;;75.00;34.45;;;7.60;99.90;;;;;;5035361;28;20080;-80
2023/04/09 04:16:41;;;;;;;79.00;33.15;;;7.60;99.90;;;;;;5035655;28;20052;-80
2023/04/09 04:19:06;;;;;;;74.40;33.05;;;7.60;99.90;;;;;;5035607;28;20488;-80
2023/04/09 04:21:32;;;;;;;74.95;32.03;;;7.60;99.90;;;;;;5052961;28;20425;-80
2023/04/09 04:23:58;;;;;;;72.15;33.42;;;7.60;99.90;;;;;;5053270;28;20378;-80
2023/04/09 04:26:23;;;;;;;73.53;30.70;;;7.60;99.90;;;;;;5056967;28;20045;-80
2023/04/09 04:28:49;;;;;;;75.88;32.83;;;7.60;99.90;;;;;;5056877;28;20065;-80
2023/04/09 04:31:15;;;;;;;72.43;33.17;;;7.50;99.90;;;;;;5056633;28;20381;-80
2023/04/09 04:33:41;;;;;;;76.10;32.83;;;7.50;99.90;;;;;;5056734;28;20045;-80
2023/04/09 04:36:13;;;;;;;76.03;32.55;;;7.50;99.90;;;;;;5038867;28;20499;-80
2023/04/09 04:38:40;;;;;;;68.72;31.35;;;7.50;99.90;;;;;;5056613;28;20080;-80
2023/04/09 04:41:06;;;;;;;75.63;33.17;;;7.50;99.90;;;;;;5056559;28;20484;-80
2023/04/09 04:43:32;;;;;;;68.22;30.90;;;7.40;99.90;;;;;;5056629;28;20047;-81
2023/04/09 04:45:58;;;;;;;74.38;33.33;;;7.40;99.90;;;;;;5056530;28;20048;-81
2023/04/09 04:48:24;;;;;;;73.50;32.30;;;7.40;99.90;;;;;;5038481;28;20073;-80
2023/04/09 04:50:57;;;;;;;73.97;32.55;;;7.40;99.90;;;;;;5055907;28;20130;-81
2023/04/09 04:53:23;;;;;;;78.28;33.22;;;7.40;99.90;;;;;;5055482;28;20057;-80
2023/04/09 04:55:49;;;;;;;75.35;31.85;;;7.40;99.90;;;;;;5055814;28;20040;-80
2023/04/09 04:58:15;;;;;;;76.68;32.60;;;7.30;99.90;;;;;;5038440;28;20392;-80
2023/04/09 05:00:41;;;;;;;72.88;32.13;;;7.30;99.90;;;;;;5055915;28;20068;-80
2023/04/09 05:03:06;;;;;;;74.05;33.05;;;7.40;99.90;;;;;;5038365;28;20047;-80
2023/04/09 05:05:32;;;;;;;72.18;32.58;;;7.30;99.90;;;;;;5055917;28;20057;-80
2023/04/09 05:07:58;;;;;;;70.43;31.67;;;7.40;99.90;;;;;;5055899;28;20048;-80
2023/04/09 05:10:23;;;;;;;71.00;32.45;;;7.40;99.90;;;;;;5055821;28;20484;-80
2023/04/09 05:12:49;;;;;;;67.47;30.60;;;7.40;99.90;;;;;;5055712;28;20048;-80
2023/04/09 05:15:15;;;;;;;73.60;32.10;;;7.30;99.90;;;;;;5038222;28;20056;-80
2023/04/09 05:17:44;;;;;;;65.57;32.25;;;7.40;99.90;;;;;;5055675;28;20048;-80
2023/04/09 05:20:10;;;;;;;69.22;30.25;;;7.30;99.90;;;;;;5037977;28;20480;-80
2023/04/09 05:22:36;;;;;;;65.47;30.33;;;7.40;99.90;;;;;;5037706;28;20048;-80
2023/04/09 05:25:02;;;;;;;65.03;29.65;;;7.40;99.90;;;;;;5037986;28;20091;-80
2023/04/09 05:27:28;;;;;;;69.03;29.58;;;7.40;99.90;;;;;;5055480;28;20106;-80
2023/04/09 05:29:54;;;;;;;62.28;28.42;;;7.40;99.90;;;;;;5055590;28;20097;-80
2023/04/09 05:32:19;;;;;;;65.07;29.80;;;7.40;99.90;;;;;;5055573;28;20053;-80
2023/04/09 05:34:46;;;;;;;62.45;29.92;;;7.40;99.90;;;;;;5038074;28;20369;-80
2023/04/09 05:37:12;;;;;;;63.92;30.42;;;7.40;99.90;;;;;;5054814;28;20373;-80
2023/04/09 05:39:37;;;;;;;59.67;29.42;;;7.50;99.90;;;;;;5055490;28;20598;-80
2023/04/09 05:42:03;;;;;;;67.72;30.60;;;7.50;99.90;;;;;;5055524;28;20033;-80
2023/04/09 05:44:29;;;;;;;64.97;30.42;;;7.50;99.90;;;;;;5055368;28;20384;-80
2023/04/09 05:46:55;;;;;;;66.65;28.45;;;7.40;99.90;;;;;;5047024;28;20112;-80
2023/04/09 05:49:21;;;;;;;67.35;28.45;;;7.40;99.90;;;;;;5035253;28;20133;-80
2023/04/09 05:51:46;;;;;;;64.55;28.38;;;7.50;99.90;;;;;;5035119;28;20057;-80
2023/04/09 05:54:13;;;;;;;65.55;29.70;;;7.60;99.90;;;;;;5035225;28;20049;-80
2023/04/09 05:56:39;;;;;;;64.88;29.52;;;7.50;99.90;;;;;;5035148;28;20041;-80
2023/04/09 05:59:05;;;;;;;65.68;31.30;;;7.60;99.90;;;;;;5017413;28;20401;-80
2023/04/09 06:01:30;;;;;;;70.82;32.58;;;7.50;99.90;;;;;;5017233;28;20095;-80
2023/04/09 06:03:56;;;;;;;65.65;30.52;;;7.60;99.90;;;;;;5017160;28;20045;-80
2023/04/09 06:06:21;;;;;;;64.13;29.23;;;7.60;99.90;;;;;;5017413;28;20052;-80
2023/04/09 06:08:47;;;;;;;68.55;30.33;;;7.60;99.90;;;;;;5034817;28;20042;-80
2023/04/09 06:11:13;;;;;;;60.00;28.35;;;7.60;99.90;;;;;;5017082;28;20120;-80
2023/04/09 06:13:39;;;;;;;69.75;30.08;;;7.60;99.90;;;;;;5034614;28;20088;-80
2023/04/09 06:16:08;;;;;;;67.25;30.83;;;7.60;99.90;;;;;;5017161;28;20088;-80
2023/04/09 06:18:35;;;;;;;62.30;28.27;;;7.60;99.90;;;;;;5034675;28;20489;-80
2023/04/09 06:21:02;;;;;;;64.88;29.77;;;7.60;99.90;;;;;;5034545;28;20095;-80
2023/04/09 06:23:28;;;;;;;62.80;29.67;;;7.70;99.90;;;;;;5017168;28;20128;-81
2023/04/09 06:25:53;;;;;;;62.10;28.52;;;7.60;99.90;;;;;;5034571;28;20133;-80
2023/04/09 06:28:20;;;;;;;64.55;30.17;;;7.70;99.90;;;;;;5016696;28;20401;-81
2023/04/09 06:30:45;;;;;;;63.80;30.85;;;7.60;99.90;;;;;;5016832;28;20086;-80
2023/04/09 06:33:11;;;;;;;63.15;28.80;;;7.70;99.90;;;;;;5016696;28;20049;-80
2023/04/09 06:35:37;;;;;;;63.47;29.85;;;7.70;99.90;;;;;;5016597;28;20048;-80
2023/04/09 06:38:02;;;;;;;68.18;30.88;;;7.80;99.90;;;;;;5034355;28;20045;-79
2023/04/09 06:40:28;;;;;;;60.75;29.77;;;7.70;99.90;;;;;;5016454;28;20048;-80
2023/04/09 06:42:54;;;;;;;66.07;30.83;;;7.80;99.90;;;;;;5016635;28;20509;-81
2023/04/09 06:45:20;;;;;;;68.20;28.83;;;7.70;99.90;;;;;;5016655;28;20080;-81
2023/04/09 06:47:45;;;;;;;61.40;28.73;;;7.70;99.90;;;;;;5015776;28;20049;-80
2023/04/09 06:50:11;;;;;;;57.25;27.33;;;7.80;99.90;;;;;;5034270;28;20131;-80
2023/04/09 06:52:37;;;;;;;62.08;29.08;;;7.80;99.90;;;;;;5033792;28;20045;-80
2023/04/09 06:55:02;;;;;;;64.43;30.52;;;7.80;99.90;;;;;;5016332;28;20053;-79
2023/04/09 06:57:28;;;;;;;64.55;28.85;;;7.80;99.90;;;;;;5016470;28;20052;-82
2023/04/09 06:59:54;;;;;;;62.45;29.27;;;8.00;99.90;;;;;;5027013;28;20512;-80
2023/04/09 07:02:20;;;;;;;63.33;30.50;;;7.90;99.90;;;;;;5015689;28;20045;-80
2023/04/09 07:04:46;;;;;;;60.28;28.23;;;8.00;99.90;;;;;;4996270;28;20046;-82
2023/04/09 07:07:12;;;;;;;59.22;28.17;;;8.00;99.90;;;;;;5014090;28;20157;-80
2023/04/09 07:09:37;;;;;;;57.47;29.25;;;8.00;99.90;;;;;;4996205;28;20409;-81
2023/04/09 07:12:03;;;;;;;65.50;31.95;;;8.10;99.90;;;;;;4996338;28;20088;-81
2023/04/09 07:14:29;;;;;;;62.95;31.05;;;8.00;99.90;;;;;;5013751;28;20400;-80
2023/04/09 07:16:54;;;;;;;65.00;31.30;;;8.10;99.90;;;;;;4996123;28;20049;-80
2023/04/09 07:19:20;;;;;;;66.45;31.55;;;8.10;99.90;;;;;;5013714;28;20124;-81
2023/04/09 07:21:45;;;;;;;63.55;31.65;;;8.10;99.90;;;;;;5013578;28;20041;-81
2023/04/09 07:24:11;;;;;;;59.83;29.00;;;8.10;99.90;;;;;;4996023;28;20046;-81
2023/04/09 07:26:37;;;;;;;68.22;30.40;;;8.10;99.90;;;;;;5013748;28;20482;-81
2023/04/09 07:29:03;;;;;;;59.92;28.27;;;8.10;99.90;;;;;;4995985;28;20053;-81
2023/04/09 07:31:28;;;;;;;52.75;28.33;;;8.20;99.90;;;;;;4996205;28;20045;-81
2023/04/09 07:33:54;;;;;;;66.88;31.95;;;8.20;99.90;;;;;;4995880;28;20053;-81
2023/04/09 07:36:20;;;;;;;59.72;29.80;;;8.20;99.90;;;;;;5013505;28;20038;-81
2023/04/09 07:38:45;;;;;;;67.10;29.35;;;8.20;99.90;;;;;;5013534;28;20057;-81
2023/04/09 07:41:11;;;;;;;61.13;29.58;;;8.30;99.90;;;;;;5013350;28;20046;-81
2023/04/09 07:43:37;;;;;;;58.63;28.60;;;8.20;99.90;;;;;;5013486;28;20065;-84
2023/04/09 07:46:03;;;;;;;58.17;29.02;;;8.20;99.90;;;;;;4995732;28;20046;-83
2023/04/09 07:48:28;;;;;;;67.15;31.30;;;8.20;99.90;;;;;;4996148;28;20050;-84
2023/04/09 07:50:54;;;;;;;59.95;29.13;;;8.20;99.90;;;;;;4995741;28;20062;-84
2023/04/09 07:53:20;;;;;;;55.97;28.45;;;8.20;99.90;;;;;;5013392;28;20485;-90
2023/04/09 07:55:45;;;;;;;60.97;29.17;;;8.20;99.90;;;;;;4995639;28;20046;-86
2023/04/09 07:58:11;;;;;;;53.03;25.13;;;8.20;99.90;;;;;;4995657;28;20045;-85
2023/04/09 08:00:37;;;;;;;59.10;28.10;;;8.20;99.90;;;;;;4998920;28;20046;-84
2023/04/09 08:03:02;;;;;;;54.60;25.95;;;8.20;99.90;;;;;;5017290;28;20046;-84
2023/04/09 08:05:29;;;;;;;62.70;27.25;;;8.30;99.90;;;;;;4999860;28;20441;-84
2023/04/09 08:07:55;;;;;;;52.28;26.38;;;8.30;99.90;;;;;;5017219;28;20513;-83
2023/04/09 08:10:21;;;;;;;51.50;26.70;;;8.20;99.90;;;;;;4999449;28;20038;-83
2023/04/09 08:12:47;;;;;;;48.30;23.65;;;8.20;99.90;;;;;;4999539;28;20057;-83
2023/04/09 08:15:13;;;;;;;51.97;25.35;;;8.30;99.90;;;;;;4999691;28;20132;-84
2023/04/09 08:17:39;;;;;;;51.60;26.08;;;8.40;99.90;;;;;;5016887;28;20121;-83
2023/04/09 08:20:08;;;;;;;59.50;28.02;;;8.30;99.90;;;;;;4999301;28;20132;-83
2023/04/09 08:22:33;;;;;;;53.28;25.33;;;8.30;99.90;;;;;;4999167;28;20038;-83
2023/04/09 08:24:59;;;;;;;54.22;27.55;;;8.40;99.90;;;;;;4999432;28;20048;-84
2023/04/09 08:27:25;;;;;;;57.08;28.02;;;8.40;99.90;;;;;;4999458;28;20120;-83
2023/04/09 08:29:50;;;;;;;56.33;27.98;;;8.50;99.90;;;;;;4999363;28;20396;-83
2023/04/09 08:32:16;;;;;;;55.50;27.13;;;8.40;99.90;;;;;;5016802;28;20473;-85
2023/04/09 08:34:42;;;;;;;53.65;28.52;;;8.40;99.90;;;;;;5016602;28;20079;-84
2023/04/09 08:37:07;;;;;;;50.75;27.20;;;8.50;99.90;;;;;;4999383;28;20050;-84
2023/04/09 08:39:33;;;;;;;51.22;27.35;;;8.50;99.90;;;;;;5016496;28;20049;-84
2023/04/09 08:42:02;;;;;;;53.28;26.83;;;8.50;99.90;;;;;;4999175;28;20390;-83
2023/04/09 08:44:28;;;;;;;53.38;28.60;;;8.60;99.90;;;;;;4998794;28;20046;-84
2023/04/09 08:46:54;;;;;;;52.97;28.27;;;8.60;99.90;;;;;;4999354;28;20051;-86
2023/04/09 08:49:20;;;;;;;55.78;27.75;;;8.60;99.90;;;;;;4998704;28;20054;-85
2023/04/09 08:51:47;;;;;;;54.00;27.67;;;8.70;99.90;;;;;;4998564;28;20077;-85
2023/04/09 08:54:16;;;;;;;48.25;25.25;;;8.80;99.90;;;;;;4998418;28;20401;-84
2023/04/09 08:56:42;;;;;;;49.60;24.83;;;8.80;99.90;;;;;;4998691;28;20440;-85
2023/04/09 08:59:08;;;;;;;51.70;24.60;;;8.80;99.90;;;;;;4998640;28;20045;-85
2023/04/09 09:01:34;;;;;;;51.17;25.80;;;8.80;99.90;;;;;;4998846;28;20073;-85
2023/04/09 09:04:04;;;;;;;50.08;26.25;;;8.90;99.90;;;;;;4998481;28;20493;-85
2023/04/09 09:06:38;;;;;;;51.85;26.50;;;8.90;99.90;;;;;;4998689;28;20390;-83
2023/04/09 09:09:05;;;;;;;51.47;25.33;;;8.90;99.90;;;;;;5016003;28;20037;-85
2023/04/09 09:11:35;;;;;;;51.13;26.67;;;8.90;99.90;;;;;;4997634;28;20499;-85
2023/04/09 09:14:06;;;;;;;51.17;26.77;;;8.90;99.90;;;;;;4998468;28;20056;-82
2023/04/09 09:16:33;;;;;;;45.85;24.85;;;9.00;99.90;;;;;;4998483;28;20254;-80
2023/04/09 09:19:03;;;;;;;53.75;26.75;;;9.00;99.90;;;;;;5015851;28;20123;-82
2023/04/09 09:21:29;;;;;;;52.22;27.33;;;9.00;99.90;;;;;;4998159;28;20037;-82
2023/04/09 09:23:55;;;;;;;52.75;27.70;;;9.00;99.90;;;;;;4998320;28;20053;-81
2023/04/09 09:26:23;;;;;;;53.15;27.10;;;9.00;99.90;;;;;;4998418;28;20125;-81
2023/04/09 09:28:49;;;;;;;53.22;26.92;;;9.00;99.90;;;;;;4998218;28;20049;-81
2023/04/09 09:31:17;;;;;;;63.42;27.38;;;9.00;99.90;;;;;;5015526;28;20042;-81
2023/04/09 09:33:43;;;;;;;49.58;26.73;;;9.00;99.90;;;;;;5015551;28;20096;-81
2023/04/09 09:36:09;;;;;;;54.05;26.02;;;9.00;99.90;;;;;;5034125;28;20465;-82
2023/04/09 09:38:55;;;;;;;53.97;25.88;;;9.00;99.90;;;;;;5026906;28;20075;-82
2023/04/09 09:41:22;;;;;;;53.13;27.30;;;9.00;99.90;;;;;;5017331;28;20042;-83
2023/04/09 09:43:49;;;;;;;54.70;27.80;;;9.00;99.90;;;;;;5034262;28;20042;-82
2023/04/09 09:46:16;;;;;;;57.28;26.90;;;9.00;99.90;;;;;;5033554;28;20080;-82
2023/04/09 09:48:43;;;;;;;56.90;26.08;;;9.10;99.90;;;;;;5036841;28;20149;-82
2023/04/09 09:51:11;;;;;;;54.60;27.77;;;9.10;99.90;;;;;;5023889;28;20156;-80
2023/04/09 09:53:44;;;;;;;48.88;24.95;;;9.20;99.90;;;;;;5029116;28;20417;-82
2023/04/09 09:56:21;;;;;;;47.72;26.38;;;9.20;99.90;;;;;;5033672;28;20099;-81
2023/04/09 09:59:05;;;;;;;54.85;27.05;;;9.20;99.90;;;;;;5030096;28;20045;-81
2023/04/09 10:01:31;;;;;;;50.60;25.60;;;9.30;99.90;;;;;;5033864;28;20049;-82
2023/04/09 10:04:00;;;;;;;52.55;27.40;;;9.40;99.90;;;;;;5033672;28;20044;-80
2023/04/09 10:06:26;;;;;;;51.58;26.90;;;9.40;99.90;;;;;;5026829;28;20389;-82
2023/04/09 10:08:57;;;;;;;50.72;26.92;;;9.40;99.90;;;;;;5033720;28;20481;-82
2023/04/09 10:11:23;;;;;;;53.58;27.83;;;9.50;99.90;;;;;;5026688;28;20067;-83
2023/04/09 10:13:58;;;;;;;55.10;28.55;;;9.50;99.90;;;;;;5033495;28;20489;-83
2023/04/09 10:16:26;;;;;;;54.65;29.38;;;9.50;99.90;;;;;;5026713;28;20148;-81
2023/04/09 10:18:56;;;;;;;54.35;28.25;;;9.60;99.90;;;;;;5033286;28;20045;-91
2023/04/09 10:21:38;;;;;;;47.45;27.20;;;9.60;99.90;;;;;;5034729;28;20477;-90
2023/04/09 10:24:06;;;;;;;45.90;26.83;;;9.60;99.90;;;;;;5032527;28;20045;-85
2023/04/09 10:26:34;;;;;;;50.22;27.45;;;9.60;99.90;;;;;;5034622;28;20068;-88
2023/04/09 10:29:26;;;;;;;51.17;26.23;;;9.70;99.90;;;;;;5031581;28;20460;-91
2023/04/09 10:32:05;;;;;;;50.63;26.20;;;9.70;99.90;;;;;;5030851;28;20057;-86
2023/04/09 10:34:36;;;;;;;51.65;26.08;;;9.80;99.90;;;;;;5034350;28;20128;-83
2023/04/09 10:37:02;;;;;;;47.38;26.73;;;10.00;99.90;;;;;;5031439;28;20100;-87
2023/04/09 10:39:31;;;;;;;50.28;26.88;;;10.10;99.90;;;;;;5026704;28;20041;-90
2023/04/09 10:41:58;;;;;;;52.08;26.60;;;10.10;99.90;;;;;;5033321;28;20152;-85
2023/04/09 10:44:26;;;;;;;49.72;27.17;;;10.30;99.90;;;;;;5034137;28;20052;-82
2023/04/09 10:46:53;;;;;;;51.10;26.52;;;10.40;99.90;;;;;;5029946;28;20091;-86
2023/04/09 10:49:24;;;;;;;44.97;25.52;;;10.40;99.90;;;;;;5034186;28;20041;-89
2023/04/09 10:52:03;;;;;;;47.88;25.75;;;10.50;99.90;;;;;;5029122;28;20064;-84
2023/04/09 10:54:32;;;;;;;47.08;24.50;;;10.40;99.90;;;;;;5035939;28;20056;-86
2023/04/09 10:57:07;;;;;;;47.22;24.52;;;10.60;99.90;;;;;;5036376;28;20128;-88
2023/04/09 10:59:41;;;;;;;44.67;25.10;;;10.70;99.90;;;;;;5036154;28;20056;-84
2023/04/09 11:02:08;;;;;;;47.63;25.85;;;10.70;99.90;;;;;;5035981;28;20120;-82
2023/04/09 11:04:42;;;;;;;45.80;24.48;;;10.90;99.90;;;;;;5035628;28;20132;-83
2023/04/09 11:07:08;;;;;;;45.22;25.50;;;11.00;99.90;;;;;;5035861;28;20056;-80
2023/04/09 11:09:35;;;;;;;45.70;24.90;;;11.10;99.90;;;;;;5035526;28;20048;-81
2023/04/09 11:12:00;;;;;;;45.70;25.63;;;11.20;99.90;;;;;;5036369;28;20400;-81
2023/04/09 11:14:26;;;;;;;48.33;27.00;;;11.30;99.90;;;;;;5035617;28;20548;-81
2023/04/09 11:16:52;;;;;;;43.30;24.77;;;11.50;99.90;;;;;;5035995;28;20135;-82
2023/04/09 11:19:19;;;;;;;45.15;26.23;;;11.70;99.90;;;;;;5035861;28;20102;-82
2023/04/09 11:21:47;;;;;;;44.72;25.85;;;11.90;99.90;;;;;;5035756;28;20087;-82
2023/04/09 11:24:13;;;;;;;41.75;24.73;;;12.00;99.90;;;;;;5035936;28;20082;-82
2023/04/09 11:26:38;;;;;;;47.72;26.75;;;12.20;99.90;;;;;;5035517;28;20049;-82
2023/04/09 11:29:08;;;;;;;65.55;32.47;;;12.40;99.90;;;;;;5035594;28;20128;-82
2023/04/09 11:31:34;;;;;;;48.90;24.90;;;12.50;99.90;;;;;;5035738;28;20098;-83
2023/04/09 11:34:00;;;;;;;43.17;25.70;;;12.30;99.90;;;;;;5034826;28;20127;-82
2023/04/09 11:36:26;;;;;;;44.78;26.50;;;12.10;99.90;;;;;;5035575;28;20037;-81
2023/04/09 11:38:54;;;;;;;46.33;27.10;;;12.30;99.90;;;;;;5035264;28;20053;-80
2023/04/09 11:41:33;;;;;;;46.53;28.02;;;12.30;99.90;;;;;;5053317;28;20064;-80
2023/04/09 11:44:04;;;;;;;39.40;24.33;;;12.20;99.90;;;;;;5035094;28;20045;-81
2023/04/09 11:46:37;;;;;;;49.25;27.65;;;12.20;99.90;;;;;;5053049;28;20053;-80
2023/04/09 11:49:02;;;;;;;;;;;12.20;99.90;;;;;;5053366;28;20128;-81
2023/04/09 11:51:34;;;;;;;44.75;27.25;;;12.30;99.90;;;;;;5052785;28;19921;-81
2023/04/09 11:54:04;;;;;;;53.20;28.92;;;12.20;99.90;;;;;;5053111;28;20124;-80
2023/04/09 11:56:31;;;;;;;47.15;28.13;;;12.50;99.90;;;;;;5035293;28;20060;-80
2023/04/09 11:58:57;;;;;;;41.75;25.63;;;12.80;99.90;;;;;;5053040;28;20033;-80
2023/04/09 12:01:23;;;;;;;46.65;27.00;;;12.90;99.90;;;;;;5052776;28;20057;-80
2023/04/09 12:03:53;;;;;;;45.75;26.55;;;13.00;99.90;;;;;;5052762;28;20041;-81
2023/04/09 12:06:21;;;;;;;41.97;25.75;;;12.90;99.90;;;;;;5035172;28;20500;-80
2023/04/09 12:08:51;;;;;;;44.80;26.90;;;13.00;99.90;;;;;;5052889;28;20080;-81
2023/04/09 12:11:17;;;;;;;43.10;25.05;;;13.00;99.90;;;;;;5052980;28;20077;-80
2023/04/09 12:13:44;;;;;;;40.42;24.17;;;13.20;99.90;;;;;;5034877;28;20089;-80
2023/04/09 12:16:13;;;;;;;36.15;23.27;;;13.50;99.90;;;;;;5035144;28;20045;-80
2023/04/09 12:18:39;;;;;;;40.88;26.23;;;13.80;99.90;;;;;;5034873;28;20094;-81
2023/04/09 12:21:05;;;;;;;41.55;25.42;;;14.00;99.90;;;;;;5034938;28;20045;-80
2023/04/09 12:23:32;;;;;;;35.33;21.83;;;13.90;99.90;;;;;;5052656;28;20056;-80
2023/04/09 12:26:01;;;;;;;37.92;22.90;;;13.90;99.90;;;;;;5034721;28;20545;-80
2023/04/09 12:28:27;;;;;;;37.67;22.35;;;14.00;99.90;;;;;;5034967;28;20049;-80
2023/04/09 12:30:53;;;;;;;38.40;23.60;;;14.20;99.90;;;;;;5052610;28;20052;-80
2023/04/09 12:33:20;;;;;;;36.40;22.80;;;13.90;99.90;;;;;;5034792;28;20048;-80
2023/04/09 12:35:46;;;;;;;35.13;23.15;;;13.80;99.90;;;;;;5035466;28;20361;-80